createdAt,value
2017-09-17T00:00:32.203Z,5.63
2017-09-17T00:02:58.424Z,5.70
2017-09-17T00:05:25.360Z,13.23
2017-09-17T00:07:52.287Z,9.90
2017-09-17T00:10:20.743Z,6.77
2017-09-17T00:12:47.076Z,16.77
2017-09-17T00:15:13.637Z,8.10
2017-09-17T00:17:40.534Z,8.33
2017-09-17T00:20:07.446Z,5.43
2017-09-17T00:22:33.607Z,14.10
2017-09-17T00:25:00.506Z,5.57
2017-09-17T00:27:26.702Z,6.10
2017-09-17T00:29:53.198Z,4.63
2017-09-17T00:32:19.381Z,3.73
2017-09-17T00:34:45.617Z,9.10
2017-09-17T00:37:11.802Z,13.07
2017-09-17T00:39:38.014Z,6.77
2017-09-17T00:42:05.872Z,4.13
2017-09-17T00:44:32.029Z,6.43
2017-09-17T00:46:58.190Z,5.50
2017-09-17T00:49:24.354Z,3.13
2017-09-17T00:51:50.543Z,7.83
2017-09-17T00:54:16.775Z,4.43
2017-09-17T00:56:42.966Z,4.83
2017-09-17T00:59:09.163Z,6.20
2017-09-17T01:01:35.390Z,8.10
2017-09-17T01:04:01.552Z,3.20
2017-09-17T01:06:27.774Z,2.23
2017-09-17T01:08:54.714Z,4.70
2017-09-17T01:11:20.922Z,2.80
2017-09-17T01:13:47.134Z,1.70
2017-09-17T01:16:13.306Z,6.03
2017-09-17T01:18:39.483Z,2.73
2017-09-17T01:21:06.431Z,2.53
2017-09-17T01:23:32.980Z,6.23
2017-09-17T01:25:59.195Z,5.10
2017-09-17T01:28:25.386Z,3.67
2017-09-17T01:30:51.575Z,4.10
2017-09-17T01:33:17.747Z,4.30
2017-09-17T01:35:43.929Z,3.13
2017-09-17T01:38:10.082Z,10.30
2017-09-17T01:40:36.235Z,2.20
2017-09-17T01:43:02.402Z,5.50
2017-09-17T01:45:28.565Z,3.57
2017-09-17T01:47:54.731Z,2.13
2017-09-17T01:50:20.946Z,3.50
2017-09-17T01:52:48.801Z,5.67
2017-09-17T01:55:14.965Z,9.40
2017-09-17T01:57:41.137Z,15.30
2017-09-17T02:00:07.686Z,9.07
2017-09-17T02:02:33.846Z,5.87
2017-09-17T02:05:00.922Z,2.87
2017-09-17T02:07:27.394Z,3.23
2017-09-17T02:09:53.581Z,9.87
2017-09-17T02:12:19.783Z,9.57
2017-09-17T02:14:46.418Z,12.00
2017-09-17T02:17:13.319Z,10.30
2017-09-17T02:19:40.239Z,14.50
2017-09-17T02:22:07.166Z,8.37
2017-09-17T02:24:34.791Z,5.63
2017-09-17T02:27:00.976Z,4.40
2017-09-17T02:29:27.514Z,7.03
2017-09-17T02:31:53.703Z,6.03
2017-09-17T02:34:19.867Z,4.13
2017-09-17T02:36:46.433Z,2.37
2017-09-17T02:39:12.615Z,3.23
2017-09-17T02:41:38.826Z,2.60
2017-09-17T02:44:04.998Z,3.03
2017-09-17T02:46:31.194Z,1.83
2017-09-17T02:48:57.365Z,1.80
2017-09-17T02:51:23.553Z,5.37
2017-09-17T02:53:49.721Z,2.97
2017-09-17T02:56:16.286Z,2.20
2017-09-17T02:58:43.190Z,2.37
2017-09-17T03:01:09.431Z,2.03
2017-09-17T03:03:35.638Z,2.77
2017-09-17T03:06:01.833Z,3.47
2017-09-17T03:08:28.102Z,2.23
2017-09-17T03:10:54.318Z,3.00
2017-09-17T03:13:20.518Z,4.50
2017-09-17T03:15:46.690Z,2.87
2017-09-17T03:18:12.858Z,2.60
2017-09-17T03:20:39.021Z,7.37
2017-09-17T03:23:05.926Z,3.20
2017-09-17T03:25:32.105Z,3.03
2017-09-17T03:27:58.286Z,6.20
2017-09-17T03:30:24.488Z,3.50
2017-09-17T03:32:50.630Z,4.97
2017-09-17T03:35:16.802Z,4.53
2017-09-17T03:37:42.982Z,4.80
2017-09-17T03:40:09.187Z,5.00
2017-09-17T03:42:35.360Z,6.10
2017-09-17T03:45:01.546Z,5.77
2017-09-17T03:47:28.462Z,10.10
2017-09-17T03:49:55.362Z,12.67
2017-09-17T03:52:22.314Z,9.67
2017-09-17T03:54:49.213Z,8.40
2017-09-17T03:57:15.363Z,8.53
2017-09-17T03:59:42.922Z,8.60
2017-09-17T04:02:09.849Z,12.20
2017-09-17T04:04:36.826Z,10.83
2017-09-17T04:07:03.719Z,11.33
2017-09-17T04:09:29.911Z,28.03
2017-09-17T04:11:56.434Z,29.10
2017-09-17T04:14:23.014Z,27.30
2017-09-17T04:16:49.183Z,11.80
2017-09-17T04:19:15.347Z,11.57
2017-09-17T04:21:41.877Z,12.43
2017-09-17T04:24:08.094Z,13.60
2017-09-17T04:26:34.632Z,12.90
2017-09-17T04:29:00.786Z,12.20
2017-09-17T04:31:26.944Z,9.13
2017-09-17T04:33:53.122Z,11.80
2017-09-17T04:36:19.299Z,11.17
2017-09-17T04:38:45.456Z,9.30
2017-09-17T04:41:11.601Z,14.20
2017-09-17T04:43:37.802Z,13.03
2017-09-17T04:46:03.963Z,20.30
2017-09-17T04:48:30.140Z,20.90
2017-09-17T04:50:56.318Z,21.40
2017-09-17T04:53:22.498Z,19.70
2017-09-17T04:55:48.666Z,18.63
2017-09-17T04:58:14.832Z,22.93
2017-09-17T05:00:40.994Z,21.70
2017-09-17T05:03:07.133Z,25.70
2017-09-17T05:05:33.290Z,31.47
2017-09-17T05:07:59.498Z,26.63
2017-09-17T05:10:25.650Z,26.20
2017-09-17T05:12:51.832Z,34.03
2017-09-17T05:15:18.022Z,24.23
2017-09-17T05:17:44.185Z,26.83
2017-09-17T05:20:10.350Z,30.83
2017-09-17T05:22:36.527Z,28.43
2017-09-17T05:25:02.708Z,27.63
2017-09-17T05:27:28.874Z,28.57
2017-09-17T05:29:55.093Z,25.67
2017-09-17T05:32:21.293Z,30.73
2017-09-17T05:34:47.493Z,30.70
2017-09-17T05:37:13.667Z,25.50
2017-09-17T05:39:39.824Z,23.60
2017-09-17T05:42:06.013Z,22.10
2017-09-17T05:44:32.910Z,20.60
2017-09-17T05:46:59.099Z,20.47
2017-09-17T05:49:25.998Z,20.17
2017-09-17T05:51:52.148Z,26.47
2017-09-17T05:54:19.058Z,25.00
2017-09-17T05:56:45.282Z,32.43
2017-09-17T05:59:12.228Z,26.40
2017-09-17T06:01:38.734Z,24.77
2017-09-17T06:04:04.907Z,20.33
2017-09-17T06:06:31.063Z,20.67
2017-09-17T06:08:57.295Z,19.90
2017-09-17T06:11:24.218Z,17.10
2017-09-17T06:13:51.139Z,15.00
2017-09-17T06:16:17.333Z,15.50
2017-09-17T06:18:44.247Z,18.70
2017-09-17T06:21:10.396Z,20.10
2017-09-17T06:23:37.116Z,15.63
2017-09-17T06:26:03.264Z,21.53
2017-09-17T06:28:29.411Z,21.30
2017-09-17T06:30:55.594Z,18.77
2017-09-17T06:33:21.767Z,22.00
2017-09-17T06:35:47.943Z,20.30
2017-09-17T06:38:14.141Z,16.77
2017-09-17T06:40:40.284Z,17.57
2017-09-17T06:43:06.856Z,17.00
2017-09-17T06:45:33.043Z,18.20
2017-09-17T06:47:59.222Z,18.77
2017-09-17T06:50:25.410Z,17.63
2017-09-17T06:52:52.082Z,20.53
2017-09-17T06:55:18.292Z,19.87
2017-09-17T06:57:44.427Z,17.47
2017-09-17T07:00:10.645Z,18.53
2017-09-17T07:02:37.606Z,21.90
2017-09-17T07:05:03.800Z,17.33
2017-09-17T07:07:29.967Z,15.53
2017-09-17T07:09:56.940Z,20.23
2017-09-17T07:12:23.171Z,23.20
2017-09-17T07:14:49.735Z,28.00
2017-09-17T07:17:15.938Z,21.77
2017-09-17T07:19:42.155Z,25.03
2017-09-17T07:22:08.341Z,21.17
2017-09-17T07:24:35.271Z,19.50
2017-09-17T07:27:01.508Z,20.63
2017-09-17T07:29:27.647Z,22.90
2017-09-17T07:31:53.807Z,22.33
2017-09-17T07:34:19.996Z,21.03
2017-09-17T07:36:46.132Z,23.33
2017-09-17T07:39:13.081Z,23.50
2017-09-17T07:41:39.219Z,17.17
2017-09-17T07:44:05.399Z,19.83
2017-09-17T07:46:31.560Z,17.83
2017-09-17T07:48:57.741Z,19.23
2017-09-17T07:51:23.983Z,21.93
2017-09-17T07:53:50.931Z,16.93
2017-09-17T07:56:17.081Z,20.27
2017-09-17T07:58:43.249Z,32.93
2017-09-17T08:01:10.167Z,28.30
2017-09-17T08:03:37.091Z,42.07
2017-09-17T08:06:03.289Z,19.97
2017-09-17T08:08:30.241Z,30.60
2017-09-17T08:10:56.822Z,22.27
2017-09-17T08:13:22.991Z,24.20
2017-09-17T08:15:49.175Z,19.77
2017-09-17T08:18:15.370Z,19.27
2017-09-17T08:20:41.539Z,20.70
2017-09-17T08:23:08.501Z,29.33
2017-09-17T08:25:34.694Z,27.23
2017-09-17T08:28:01.194Z,26.63
2017-09-17T08:30:27.424Z,23.53
2017-09-17T08:32:53.573Z,25.60
2017-09-17T08:35:20.119Z,25.53
2017-09-17T08:37:46.765Z,30.73
2017-09-17T08:40:13.679Z,28.40
2017-09-17T08:42:40.267Z,40.33
2017-09-17T08:45:06.818Z,34.80
2017-09-17T08:47:33.354Z,36.10
2017-09-17T08:49:59.523Z,32.13
2017-09-17T08:52:25.753Z,25.27
2017-09-17T08:54:51.941Z,21.03
2017-09-17T08:57:18.143Z,24.73
2017-09-17T08:59:44.296Z,22.10
2017-09-17T09:02:10.880Z,21.93
2017-09-17T09:04:37.094Z,25.00
2017-09-17T09:07:03.231Z,22.80
2017-09-17T09:09:30.147Z,27.13
2017-09-17T09:11:56.358Z,23.10
2017-09-17T09:14:22.567Z,22.63
2017-09-17T09:16:48.766Z,24.70
2017-09-17T09:19:14.922Z,22.87
2017-09-17T09:21:41.200Z,22.20
2017-09-17T09:24:07.591Z,20.57
2017-09-17T09:26:33.799Z,21.10
2017-09-17T09:29:00.049Z,24.50
2017-09-17T09:31:27.352Z,28.70
2017-09-17T09:33:53.559Z,23.73
2017-09-17T09:36:19.763Z,22.43
2017-09-17T09:38:46.313Z,36.57
2017-09-17T09:41:12.900Z,31.43
2017-09-17T09:43:39.170Z,25.70
2017-09-17T09:46:06.087Z,19.87
2017-09-17T09:48:32.254Z,18.63
2017-09-17T09:50:58.405Z,16.00
2017-09-17T09:53:24.558Z,19.10
2017-09-17T09:55:51.475Z,17.37
2017-09-17T09:58:17.710Z,16.03
2017-09-17T10:00:43.882Z,9.53
2017-09-17T10:03:10.813Z,16.03
2017-09-17T10:05:37.347Z,14.93
2017-09-17T10:08:04.295Z,13.53
2017-09-17T10:10:30.866Z,13.07
2017-09-17T10:12:57.223Z,11.37
2017-09-17T10:15:23.634Z,15.50
2017-09-17T10:17:49.851Z,17.33
2017-09-17T10:20:16.806Z,15.70
2017-09-17T10:22:43.321Z,13.60
2017-09-17T10:25:09.543Z,11.70
2017-09-17T10:27:36.508Z,12.10
2017-09-17T10:30:02.797Z,10.47
2017-09-17T10:32:29.158Z,10.13
2017-09-17T10:34:55.344Z,8.73
2017-09-17T10:37:21.526Z,5.90
2017-09-17T10:39:47.757Z,7.77
2017-09-17T10:42:13.998Z,8.80
2017-09-17T10:44:40.914Z,6.70
2017-09-17T10:47:07.083Z,6.03
2017-09-17T10:49:33.272Z,7.03
2017-09-17T10:51:59.571Z,8.70
2017-09-17T10:54:25.770Z,6.77
2017-09-17T10:56:52.761Z,5.27
2017-09-17T10:59:18.966Z,6.63
2017-09-17T11:01:45.125Z,7.13
2017-09-17T11:04:11.371Z,7.27
2017-09-17T11:06:37.529Z,10.27
2017-09-17T11:09:03.711Z,5.67
2017-09-17T11:11:29.953Z,4.90
2017-09-17T11:13:56.135Z,4.57
2017-09-17T11:16:22.323Z,4.77
2017-09-17T11:18:48.526Z,5.70
2017-09-17T11:21:14.724Z,6.07
2017-09-17T11:23:40.884Z,5.90
2017-09-17T11:26:07.798Z,5.23
2017-09-17T11:28:34.685Z,5.77
2017-09-17T11:31:01.270Z,8.90
2017-09-17T11:33:27.504Z,5.80
2017-09-17T11:35:57.106Z,36.30
2017-09-17T11:38:24.068Z,5.77
2017-09-17T11:40:57.503Z,4.63
2017-09-17T11:43:23.655Z,3.10
2017-09-17T11:45:49.844Z,4.70
2017-09-17T11:48:16.055Z,3.00
2017-09-17T11:50:42.219Z,4.13
2017-09-17T11:53:11.235Z,3.40
2017-09-17T11:55:37.427Z,3.50
2017-09-17T11:58:03.708Z,9.20
2017-09-17T12:00:30.607Z,6.87
2017-09-17T12:02:56.791Z,6.80
2017-09-17T12:05:23.011Z,4.17
2017-09-17T12:07:49.244Z,3.10
2017-09-17T12:10:15.532Z,5.10
2017-09-17T12:12:41.720Z,3.73
2017-09-17T12:15:07.981Z,3.10
2017-09-17T12:17:34.865Z,8.93
2017-09-17T12:20:02.118Z,28.37
2017-09-17T12:22:28.312Z,1.80
2017-09-17T12:24:54.662Z,1.80
2017-09-17T12:27:20.956Z,3.20
2017-09-17T12:29:47.157Z,8.33
2017-09-17T12:32:13.439Z,2.57
2017-09-17T12:34:39.629Z,2.10
2017-09-17T12:37:05.825Z,6.93
2017-09-17T12:39:32.020Z,5.73
2017-09-17T12:41:58.650Z,2.87
2017-09-17T12:44:25.158Z,4.13
2017-09-17T12:46:51.349Z,6.67
2017-09-17T12:49:17.554Z,2.40
2017-09-17T12:51:43.753Z,1.70
2017-09-17T12:54:10.662Z,1.37
2017-09-17T12:56:37.007Z,1.30
2017-09-17T12:59:03.202Z,6.43
2017-09-17T13:01:29.797Z,3.30
2017-09-17T13:03:56.031Z,2.17
2017-09-17T13:06:22.386Z,1.40
2017-09-17T13:08:49.306Z,1.93
2017-09-17T13:11:15.602Z,1.13
2017-09-17T13:13:41.819Z,2.73
2017-09-17T13:16:08.053Z,3.43
2017-09-17T13:18:34.239Z,1.30
2017-09-17T13:21:00.565Z,1.80
2017-09-17T13:23:26.802Z,4.30
2017-09-17T13:25:53.352Z,2.47
2017-09-17T13:28:20.243Z,11.67
2017-09-17T13:30:48.123Z,20.83
2017-09-17T13:33:15.074Z,7.50
2017-09-17T13:35:41.237Z,6.13
2017-09-17T13:38:07.450Z,2.13
2017-09-17T13:40:34.385Z,1.17
2017-09-17T13:43:00.660Z,2.43
2017-09-17T13:45:26.876Z,2.97
2017-09-17T13:47:53.099Z,3.00
2017-09-17T13:50:19.295Z,4.40
2017-09-17T13:52:45.464Z,3.33
2017-09-17T13:55:12.340Z,3.33
2017-09-17T13:57:38.552Z,10.43
2017-09-17T14:00:05.074Z,1.70
2017-09-17T14:05:31.092Z,4.83
2017-09-17T14:07:58.061Z,2.80
2017-09-17T14:10:25.079Z,3.13
2017-09-17T14:12:51.306Z,3.33
2017-09-17T14:15:17.498Z,6.07
2017-09-17T14:17:43.771Z,1.80
2017-09-17T14:20:09.958Z,2.77
2017-09-17T14:22:36.208Z,1.73
2017-09-17T14:25:02.415Z,4.10
2017-09-17T14:27:28.610Z,4.50
2017-09-17T14:29:54.816Z,1.23
2017-09-17T14:32:22.084Z,1.70
2017-09-17T14:34:48.243Z,2.07
2017-09-17T14:37:15.151Z,8.43
2017-09-17T14:39:41.306Z,4.87
2017-09-17T14:42:09.037Z,4.07
2017-09-17T14:44:35.379Z,1.60
2017-09-17T14:47:01.587Z,1.33
2017-09-17T14:49:27.792Z,1.23
2017-09-17T14:51:53.962Z,1.53
2017-09-17T14:54:20.495Z,3.13
2017-09-17T14:56:46.692Z,2.10
2017-09-17T14:59:13.290Z,7.00
2017-09-17T15:01:40.218Z,2.87
2017-09-17T15:04:07.515Z,7.30
2017-09-17T15:06:34.069Z,2.53
2017-09-17T15:09:00.271Z,4.13
2017-09-17T15:11:26.465Z,4.40
2017-09-17T15:13:52.645Z,3.37
2017-09-17T15:16:18.835Z,7.53
2017-09-17T15:18:45.014Z,11.40
2017-09-17T15:21:11.165Z,3.03
2017-09-17T15:23:37.357Z,2.47
2017-09-17T15:26:03.602Z,5.70
2017-09-17T15:28:29.812Z,22.43
2017-09-17T15:30:55.991Z,7.53
2017-09-17T15:33:22.662Z,8.10
2017-09-17T15:35:49.033Z,12.33
2017-09-17T15:38:15.965Z,7.73
2017-09-17T15:40:42.760Z,7.63
2017-09-17T15:43:08.998Z,4.30
2017-09-17T15:45:36.862Z,11.13
2017-09-17T15:48:03.063Z,65.00
2017-09-17T15:50:29.660Z,123.27
2017-09-17T15:52:55.991Z,54.73
2017-09-17T15:55:22.255Z,3.57
2017-09-17T15:57:48.477Z,2.30
2017-09-17T16:00:16.370Z,5.33
2017-09-17T16:02:43.315Z,4.10
2017-09-17T16:05:09.487Z,5.00
2017-09-17T16:07:35.659Z,13.63
2017-09-17T16:10:01.863Z,5.93
2017-09-17T16:12:28.040Z,3.40
2017-09-17T16:14:54.596Z,3.97
2017-09-17T16:17:20.805Z,53.17
2017-09-17T16:19:47.735Z,12.53
2017-09-17T16:22:13.946Z,6.93
2017-09-17T16:24:40.915Z,4.33
2017-09-17T16:27:07.081Z,5.10
2017-09-17T16:29:33.313Z,9.87
2017-09-17T16:31:59.517Z,3.90
2017-09-17T16:34:25.672Z,3.70
2017-09-17T16:36:52.990Z,4.53
2017-09-17T16:39:19.176Z,6.10
2017-09-17T16:41:45.325Z,7.20
2017-09-17T16:44:12.319Z,11.60
2017-09-17T16:46:39.661Z,2.87
2017-09-17T16:49:05.845Z,3.33
2017-09-17T16:51:31.993Z,4.03
2017-09-17T16:53:58.192Z,1.93
2017-09-17T16:56:24.386Z,3.60
2017-09-17T16:58:50.634Z,5.53
2017-09-17T17:01:16.879Z,5.53
2017-09-17T17:03:43.851Z,5.33
2017-09-17T17:06:10.820Z,2.70
2017-09-17T17:08:37.027Z,2.80
2017-09-17T17:11:03.216Z,4.63
2017-09-17T17:13:30.195Z,4.70
2017-09-17T17:15:56.381Z,4.67
2017-09-17T17:18:22.641Z,5.43
2017-09-17T17:20:49.576Z,4.93
2017-09-17T17:23:15.772Z,4.77
2017-09-17T17:25:41.954Z,3.23
2017-09-17T17:28:08.122Z,4.00
2017-09-17T17:30:34.327Z,4.10
2017-09-17T17:33:00.523Z,4.23
2017-09-17T17:35:26.718Z,5.60
2017-09-17T17:37:52.874Z,7.77
2017-09-17T17:40:19.065Z,6.17
2017-09-17T17:42:45.302Z,5.67
2017-09-17T17:45:11.546Z,5.20
2017-09-17T17:47:37.742Z,4.43
2017-09-17T17:50:03.910Z,7.93
2017-09-17T17:52:30.866Z,5.57
2017-09-17T17:54:57.042Z,3.83
2017-09-17T17:57:23.228Z,2.40
2017-09-17T17:59:49.435Z,4.60
2017-09-17T18:02:15.619Z,3.70
2017-09-17T18:04:41.790Z,8.97
2017-09-17T18:07:08.351Z,6.93
2017-09-17T18:09:34.567Z,7.53
2017-09-17T18:12:00.752Z,5.07
2017-09-17T18:14:26.984Z,5.33
2017-09-17T18:16:53.160Z,5.80
2017-09-17T18:19:19.371Z,8.67
2017-09-17T18:21:45.591Z,7.60
2017-09-17T18:24:11.777Z,5.63
2017-09-17T18:26:37.944Z,5.27
2017-09-17T18:29:04.847Z,4.00
2017-09-17T18:31:31.039Z,7.17
2017-09-17T18:33:57.234Z,2.83
2017-09-17T18:36:23.415Z,4.27
2017-09-17T18:38:49.599Z,3.17
2017-09-17T18:41:15.783Z,4.10
2017-09-17T18:43:42.744Z,3.40
2017-09-17T18:46:08.949Z,4.60
2017-09-17T18:48:35.107Z,7.97
2017-09-17T18:51:07.230Z,3.67
2017-09-17T18:53:33.759Z,6.67
2017-09-17T18:56:00.719Z,4.80
2017-09-17T18:58:26.913Z,2.63
2017-09-17T19:00:53.109Z,5.00
2017-09-17T19:03:19.282Z,8.63
2017-09-17T19:05:45.513Z,4.73
2017-09-17T19:08:11.804Z,4.03
2017-09-17T19:10:38.740Z,7.57
2017-09-17T19:13:05.022Z,6.30
2017-09-17T19:15:31.882Z,3.50
2017-09-17T19:17:58.104Z,8.47
2017-09-17T19:20:25.575Z,5.73
2017-09-17T19:22:52.637Z,7.90
2017-09-17T19:25:19.167Z,6.37
2017-09-17T19:27:46.101Z,5.27
2017-09-17T19:30:12.271Z,3.30
2017-09-17T19:32:38.500Z,3.93
2017-09-17T19:35:04.719Z,1.97
2017-09-17T19:37:31.312Z,6.80
2017-09-17T19:39:57.499Z,5.90
2017-09-17T19:42:24.647Z,4.10
2017-09-17T19:44:50.857Z,3.57
2017-09-17T19:47:17.084Z,4.33
2017-09-17T19:49:43.271Z,4.10
2017-09-17T19:52:09.544Z,2.50
2017-09-17T19:54:35.833Z,2.13
2017-09-17T19:57:02.062Z,7.80
2017-09-17T19:59:28.269Z,15.30
2017-09-17T20:01:54.498Z,9.17
2017-09-17T20:04:20.718Z,7.60
2017-09-17T20:06:47.695Z,7.33
2017-09-17T20:09:13.882Z,2.50
2017-09-17T20:11:40.120Z,3.57
2017-09-17T20:14:06.724Z,3.60
2017-09-17T20:16:32.908Z,3.17
2017-09-17T20:18:59.174Z,5.60
2017-09-17T20:21:25.379Z,3.23
2017-09-17T20:23:51.600Z,4.10
2017-09-17T20:26:17.784Z,4.83
2017-09-17T20:28:44.074Z,5.40
2017-09-17T20:31:10.259Z,3.33
2017-09-17T20:33:36.816Z,4.97
2017-09-17T20:36:03.005Z,3.90
2017-09-17T20:38:29.178Z,4.60
2017-09-17T20:40:55.773Z,4.63
2017-09-17T20:43:22.352Z,3.40
2017-09-17T20:45:48.571Z,5.07
2017-09-17T20:48:14.765Z,2.37
2017-09-17T20:50:40.920Z,4.30
2017-09-17T20:53:07.107Z,4.27
2017-09-17T20:55:33.259Z,3.90
2017-09-17T20:57:59.455Z,13.53
2017-09-17T21:00:25.672Z,7.80
2017-09-17T21:02:51.842Z,5.73
2017-09-17T21:05:18.044Z,6.10
2017-09-17T21:07:44.982Z,3.37
2017-09-17T21:10:11.663Z,3.70
2017-09-17T21:12:37.842Z,8.77
2017-09-17T21:15:04.284Z,5.23
2017-09-17T21:17:30.452Z,5.80
2017-09-17T21:19:57.000Z,4.43
2017-09-17T21:22:23.196Z,5.97
2017-09-17T21:24:52.128Z,7.77
2017-09-17T21:27:18.393Z,3.80
2017-09-17T21:29:44.577Z,8.80
2017-09-17T21:32:10.742Z,7.53
2017-09-17T21:34:36.862Z,3.23
2017-09-17T21:37:03.062Z,5.23
2017-09-17T21:39:29.281Z,5.50
2017-09-17T21:41:55.468Z,5.70
2017-09-17T21:44:21.634Z,3.87
2017-09-17T21:46:47.820Z,6.30
2017-09-17T21:49:14.014Z,4.40
2017-09-17T21:51:40.920Z,4.57
2017-09-17T21:54:07.079Z,5.73
2017-09-17T21:56:33.269Z,4.80
2017-09-17T21:58:59.502Z,3.57
2017-09-17T22:01:25.701Z,4.53
2017-09-17T22:03:51.875Z,5.80
2017-09-17T22:06:18.098Z,4.80
2017-09-17T22:08:46.858Z,2.60
2017-09-17T22:11:13.029Z,4.07
2017-09-17T22:13:39.533Z,6.90
2017-09-17T22:16:05.782Z,4.70
2017-09-17T22:18:32.140Z,6.50
2017-09-17T22:20:58.283Z,5.40
2017-09-17T22:23:24.472Z,3.60
2017-09-17T22:25:50.798Z,5.70
2017-09-17T22:28:16.996Z,3.60
2017-09-17T22:30:43.195Z,6.60
2017-09-17T22:33:09.341Z,4.30
2017-09-17T22:35:35.492Z,5.07
2017-09-17T22:38:01.680Z,3.23
2017-09-17T22:40:27.859Z,5.20
2017-09-17T22:42:54.037Z,7.17
2017-09-17T22:45:20.284Z,3.10
2017-09-17T22:47:46.865Z,3.80
2017-09-17T22:50:13.027Z,2.03
2017-09-17T22:52:40.399Z,3.77
2017-09-17T22:55:06.682Z,2.77
2017-09-17T22:57:32.855Z,5.27
2017-09-17T22:59:59.051Z,3.27
2017-09-17T23:02:25.231Z,4.00
2017-09-17T23:04:51.434Z,2.73
2017-09-17T23:07:17.614Z,4.43
2017-09-17T23:09:43.768Z,4.37
2017-09-17T23:12:09.982Z,3.13
2017-09-17T23:14:36.162Z,4.97
2017-09-17T23:17:02.394Z,6.03
2017-09-17T23:19:29.331Z,2.20
2017-09-17T23:21:55.542Z,1.47
2017-09-17T23:24:21.737Z,2.20
2017-09-17T23:26:48.306Z,7.40
2017-09-17T23:29:14.512Z,3.50
2017-09-17T23:31:40.700Z,5.80
2017-09-17T23:34:06.902Z,3.77
2017-09-17T23:36:34.299Z,5.30
2017-09-17T23:39:00.684Z,8.03
2017-09-17T23:41:26.841Z,4.63
2017-09-17T23:43:53.001Z,4.20
2017-09-17T23:46:19.178Z,2.83
2017-09-17T23:48:45.716Z,4.20
2017-09-17T23:51:11.923Z,5.70
2017-09-17T23:53:43.991Z,7.10
2017-09-17T23:56:10.654Z,4.60
2017-09-17T23:58:37.210Z,7.70
